createdAt,value
2022-08-17T00:00:01.374Z,39.55
2022-08-17T00:05:12.041Z,40.60
2022-08-17T00:10:18.912Z,38.22
2022-08-17T00:15:21.671Z,38.83
2022-08-17T00:20:30.616Z,37.30
2022-08-17T00:25:37.342Z,35.97
2022-08-17T00:30:51.246Z,38.53
2022-08-17T00:35:59.036Z,36.42
2022-08-17T00:41:05.434Z,36.35
2022-08-17T00:46:10.858Z,36.85
2022-08-17T00:51:22.563Z,41.70
2022-08-17T00:56:42.711Z,38.10
2022-08-17T01:01:46.457Z,35.85
2022-08-17T01:06:51.229Z,35.65
2022-08-17T01:12:02.460Z,38.17
2022-08-17T01:17:05.424Z,42.10
2022-08-17T01:22:16.563Z,40.95
2022-08-17T01:27:21.462Z,44.17
2022-08-17T01:32:33.830Z,55.78
2022-08-17T01:37:39.590Z,38.75
2022-08-17T01:42:57.392Z,36.53
2022-08-17T01:48:00.271Z,36.33
2022-08-17T01:53:04.637Z,37.63
2022-08-17T01:58:10.093Z,35.55
2022-08-17T02:03:14.597Z,40.67
2022-08-17T02:08:20.380Z,45.50
2022-08-17T02:13:24.539Z,37.70
2022-08-17T02:18:26.929Z,34.30
2022-08-17T02:23:30.840Z,37.33
2022-08-17T02:28:34.941Z,36.22
2022-08-17T02:33:43.795Z,38.08
2022-08-17T02:38:47.992Z,39.92
2022-08-17T02:43:49.840Z,37.50
2022-08-17T02:48:53.950Z,35.60
2022-08-17T02:54:03.875Z,39.67
2022-08-17T02:59:21.167Z,41.65
2022-08-17T03:04:25.512Z,43.65
2022-08-17T03:09:27.291Z,37.55
2022-08-17T03:14:32.233Z,38.75
2022-08-17T03:19:41.544Z,39.88
2022-08-17T03:24:47.295Z,39.15
2022-08-17T03:29:52.877Z,38.45
2022-08-17T03:35:00.286Z,36.80
2022-08-17T03:40:03.917Z,40.97
2022-08-17T03:45:10.673Z,48.53
2022-08-17T03:50:32.732Z,37.70
2022-08-17T03:55:56.316Z,42.42
2022-08-17T04:00:58.147Z,38.38
2022-08-17T04:06:02.487Z,44.13
2022-08-17T04:11:06.362Z,40.63
2022-08-17T04:16:08.340Z,56.20
2022-08-17T04:21:14.844Z,43.57
2022-08-17T04:26:52.941Z,43.22
2022-08-17T04:31:40.707Z,41.28
2022-08-17T04:36:42.435Z,44.58
2022-08-17T04:42:16.956Z,82.90
2022-08-17T04:47:19.254Z,121.38
2022-08-17T04:52:29.858Z,121.20
2022-08-17T04:57:45.086Z,123.03
2022-08-17T05:02:50.924Z,130.05
2022-08-17T05:07:56.437Z,147.38
2022-08-17T05:13:02.595Z,154.93
2022-08-17T05:18:08.693Z,173.45
2022-08-17T05:23:19.943Z,165.23
2022-08-17T05:28:27.413Z,154.85
2022-08-17T05:33:44.327Z,147.43
2022-08-17T05:38:50.660Z,156.30
2022-08-17T05:43:56.485Z,125.22
2022-08-17T05:49:08.089Z,110.45
2022-08-17T05:54:34.822Z,113.10
2022-08-17T05:59:58.143Z,125.57
2022-08-17T06:05:35.017Z,118.88
2022-08-17T06:11:16.961Z,117.30
2022-08-17T06:16:33.656Z,106.53
2022-08-17T06:21:42.529Z,92.07
2022-08-17T06:26:47.545Z,97.72
2022-08-17T06:31:52.071Z,84.20
2022-08-17T06:37:06.504Z,82.65
2022-08-17T06:42:55.125Z,81.00
2022-08-17T06:47:52.649Z,88.32
2022-08-17T06:52:58.491Z,79.30
2022-08-17T06:58:15.977Z,71.10
2022-08-17T07:03:37.735Z,65.40
2022-08-17T07:09:01.236Z,55.47
2022-08-17T07:14:17.454Z,51.40
2022-08-17T07:19:24.908Z,49.95
2022-08-17T07:24:47.331Z,47.63
2022-08-17T07:30:10.252Z,43.95
2022-08-17T07:35:21.120Z,45.60
2022-08-17T07:40:49.960Z,35.83
2022-08-17T07:46:22.294Z,31.10
2022-08-17T07:51:36.508Z,38.13
2022-08-17T07:56:42.648Z,34.38
2022-08-17T08:01:57.476Z,34.70
2022-08-17T08:07:11.532Z,26.88
2022-08-17T08:12:23.090Z,27.67
2022-08-17T08:17:36.594Z,21.90
2022-08-17T08:23:00.605Z,24.65
2022-08-17T08:28:13.476Z,22.40
2022-08-17T08:33:45.122Z,26.42
2022-08-17T08:38:56.701Z,23.33
2022-08-17T08:44:18.911Z,20.75
2022-08-17T08:50:02.006Z,22.15
2022-08-17T08:55:16.763Z,17.92
2022-08-17T09:00:20.153Z,25.48
2022-08-17T09:05:54.175Z,25.40
2022-08-17T09:11:06.488Z,28.42
2022-08-17T09:16:23.150Z,28.60
2022-08-17T09:21:48.440Z,28.55
2022-08-17T09:26:59.664Z,24.67
2022-08-17T09:32:10.016Z,22.70
2022-08-17T09:37:24.803Z,23.13
2022-08-17T09:42:31.231Z,25.92
2022-08-17T09:47:48.369Z,22.17
2022-08-17T09:52:58.337Z,21.02
2022-08-17T09:58:21.282Z,19.17
2022-08-17T10:03:34.296Z,17.48
2022-08-17T10:08:54.186Z,18.83
2022-08-17T10:14:36.885Z,19.92
2022-08-17T10:19:39.513Z,22.33
2022-08-17T10:25:22.366Z,19.40
2022-08-17T10:30:31.129Z,20.52
2022-08-17T10:35:42.160Z,26.52
2022-08-17T10:41:05.940Z,21.52
2022-08-17T10:46:35.455Z,18.58
2022-08-17T10:51:39.689Z,15.25
2022-08-17T10:56:45.040Z,18.60
2022-08-17T11:01:58.828Z,17.50
2022-08-17T11:07:33.008Z,18.55
2022-08-17T11:13:01.235Z,24.17
2022-08-17T11:18:05.990Z,21.58
2022-08-17T11:23:10.735Z,20.35
2022-08-17T11:28:48.718Z,25.38
2022-08-17T11:34:00.191Z,19.63
2022-08-17T11:39:15.648Z,21.58
2022-08-17T11:44:51.709Z,20.17
2022-08-17T11:50:36.805Z,20.58
2022-08-17T11:55:41.907Z,20.83
2022-08-17T12:00:49.225Z,18.42
2022-08-17T12:06:00.284Z,29.42
2022-08-17T12:11:18.977Z,21.23
2022-08-17T12:16:44.328Z,21.52
2022-08-17T12:21:54.540Z,19.52
2022-08-17T12:27:04.520Z,29.17
2022-08-17T12:32:09.766Z,24.92
2022-08-17T12:37:23.335Z,20.38
2022-08-17T12:42:29.451Z,20.83
2022-08-17T12:47:37.128Z,21.23
2022-08-17T12:52:45.785Z,23.92
2022-08-17T12:57:48.542Z,17.40
2022-08-17T13:03:09.662Z,18.77
2022-08-17T13:08:27.200Z,19.15
2022-08-17T13:13:31.895Z,14.80
2022-08-17T13:18:44.937Z,15.27
2022-08-17T13:24:00.632Z,16.77
2022-08-17T13:29:25.073Z,17.88
2022-08-17T13:34:31.372Z,15.05
2022-08-17T13:39:43.499Z,17.90
2022-08-17T13:44:46.962Z,15.18
2022-08-17T13:49:51.469Z,24.63
2022-08-17T13:55:01.061Z,17.27
2022-08-17T14:00:13.221Z,21.20
2022-08-17T14:05:15.018Z,24.92
2022-08-17T14:10:20.762Z,12.98
2022-08-17T14:15:24.698Z,14.40
2022-08-17T14:20:49.504Z,10.77
2022-08-17T14:25:53.445Z,9.77
2022-08-17T14:31:03.406Z,13.48
2022-08-17T14:36:05.221Z,10.82
2022-08-17T14:41:09.291Z,16.75
2022-08-17T14:46:12.392Z,15.48
2022-08-17T14:51:14.576Z,20.08
2022-08-17T14:56:19.945Z,20.67
2022-08-17T15:01:22.312Z,20.75
2022-08-17T15:06:24.885Z,19.50
2022-08-17T15:11:29.706Z,22.45
2022-08-17T15:16:36.013Z,18.55
2022-08-17T15:21:41.593Z,22.42
2022-08-17T15:26:44.477Z,19.63
2022-08-17T15:31:48.814Z,19.20
2022-08-17T15:36:50.700Z,15.88
2022-08-17T15:41:58.577Z,23.00
2022-08-17T15:47:01.228Z,18.27
2022-08-17T15:52:24.191Z,16.30
2022-08-17T15:57:33.947Z,19.60
2022-08-17T16:03:44.835Z,18.73
2022-08-17T16:08:02.296Z,21.67
2022-08-17T16:13:04.605Z,22.23
2022-08-17T16:18:13.173Z,21.88
2022-08-17T16:23:21.831Z,27.80
2022-08-17T16:28:29.865Z,21.27
2022-08-17T16:33:39.498Z,11.23
2022-08-17T16:38:41.286Z,17.45
2022-08-17T16:43:45.621Z,20.02
2022-08-17T16:48:49.623Z,18.73
2022-08-17T16:53:57.796Z,18.52
2022-08-17T16:59:21.136Z,20.10
2022-08-17T17:04:35.192Z,33.00
2022-08-17T17:09:46.469Z,25.33
2022-08-17T17:14:59.257Z,19.23
2022-08-17T17:20:17.757Z,16.75
2022-08-17T17:25:30.477Z,17.38
2022-08-17T17:30:42.612Z,25.50
2022-08-17T17:35:53.429Z,20.67
2022-08-17T17:41:03.015Z,20.92
2022-08-17T17:46:28.109Z,22.15
2022-08-17T17:52:09.111Z,17.55
2022-08-17T17:57:12.544Z,25.17
2022-08-17T18:02:51.423Z,17.95
2022-08-17T18:08:19.895Z,17.83
2022-08-17T18:13:54.254Z,18.35
2022-08-17T18:18:57.775Z,16.10
2022-08-17T18:24:05.466Z,11.70
2022-08-17T18:29:15.817Z,18.17
2022-08-17T18:34:46.473Z,16.40
2022-08-17T18:39:51.390Z,25.95
2022-08-17T18:44:55.351Z,21.33
2022-08-17T18:50:23.065Z,16.63
2022-08-17T18:55:31.420Z,17.38
2022-08-17T19:00:38.184Z,18.00
2022-08-17T19:05:44.406Z,22.25
2022-08-17T19:10:49.329Z,21.65
2022-08-17T19:16:13.841Z,20.15
2022-08-17T19:21:20.558Z,28.73
2022-08-17T19:26:55.209Z,21.95
2022-08-17T19:31:55.324Z,18.63
2022-08-17T19:37:09.081Z,21.15
2022-08-17T19:42:20.108Z,23.02
2022-08-17T19:47:55.414Z,16.50
2022-08-17T19:53:23.366Z,27.83
2022-08-17T19:58:33.800Z,26.35
2022-08-17T20:04:00.525Z,23.90
2022-08-17T20:09:14.998Z,16.35
2022-08-17T20:14:38.228Z,39.85
2022-08-17T20:19:51.901Z,66.35
2022-08-17T20:24:55.065Z,49.50
2022-08-17T20:30:10.339Z,51.13
2022-08-17T20:35:17.250Z,39.83
2022-08-17T20:40:23.291Z,38.92
2022-08-17T20:45:27.307Z,27.27
2022-08-17T20:50:37.940Z,41.25
2022-08-17T20:55:51.937Z,38.92
2022-08-17T21:00:57.376Z,43.05
2022-08-17T21:06:16.848Z,42.53
2022-08-17T21:11:58.202Z,44.85
2022-08-17T21:17:17.543Z,50.13
2022-08-17T21:22:38.134Z,36.58
2022-08-17T21:28:02.582Z,37.70
2022-08-17T21:33:31.871Z,36.15
2022-08-17T21:38:42.896Z,33.45
2022-08-17T21:43:48.295Z,48.88
2022-08-17T21:48:54.457Z,47.40
2022-08-17T21:54:04.178Z,36.70
2022-08-17T21:59:13.250Z,29.10
2022-08-17T22:04:14.953Z,21.05
2022-08-17T22:09:34.069Z,22.27
2022-08-17T22:14:53.044Z,18.48
2022-08-17T22:20:01.471Z,15.05
2022-08-17T22:25:08.575Z,14.68
2022-08-17T22:30:31.414Z,14.45
2022-08-17T22:35:36.578Z,13.93
2022-08-17T22:40:41.377Z,14.95
2022-08-17T22:45:53.421Z,12.40
2022-08-17T22:51:12.774Z,11.27
2022-08-17T22:56:40.999Z,9.02
2022-08-17T23:01:45.481Z,7.82
2022-08-17T23:06:50.075Z,8.73
2022-08-17T23:11:59.460Z,10.18
2022-08-17T23:17:04.082Z,13.18
2022-08-17T23:22:08.710Z,14.32
2022-08-17T23:27:15.938Z,14.18
2022-08-17T23:32:22.235Z,16.48
2022-08-17T23:37:27.119Z,15.00
2022-08-17T23:42:31.692Z,15.82
2022-08-17T23:47:33.460Z,19.27
2022-08-17T23:52:41.210Z,14.00
2022-08-17T23:57:45.200Z,17.33
